Time;durP1;ratioP1;P1;durP2;ratioP2;P2;SDS_P1;SDS_P2;PMS_P1;PMS_P2;Temp;Humidity;BMP_temperature;BMP_pressure;BME280_temperature;BME280_humidity;BME280_pressure;Samples;Min_cycle;Max_cycle;Signal;HPM_P1;HPM_P2
2022/10/26 00:01:18;;;;;;;17.67;10.65;;;;;;;;;;4964405;28;20035;-81
2022/10/26 00:03:44;;;;;;;19.85;10.68;;;;;;;;;;4964461;28;20566;-79
2022/10/26 00:06:20;;;;;;;14.50;9.93;;;;;;;;;;4964841;28;20111;-80
2022/10/26 00:08:45;;;;;;;15.25;10.30;;;;;;;;;;4981141;28;20115;-81
2022/10/26 00:11:11;;;;;;;17.23;9.93;;;;;;;;;;4967423;28;20115;-80
2022/10/26 00:13:36;;;;;;;14.05;9.25;;;;;;;;;;4984387;28;20082;-81
2022/10/26 00:16:15;;;;;;;14.25;10.00;;;;;;;;;;4983845;28;20418;-80
2022/10/26 00:18:41;;;;;;;15.27;9.02;;;;;;;;;;4967725;28;20031;-80
2022/10/26 00:21:08;;;;;;;14.65;9.98;;;;;;;;;;4967871;28;20360;-81
2022/10/26 00:23:33;;;;;;;15.40;8.88;;;;;;;;;;4951710;29;20047;-80
2022/10/26 00:25:58;;;;;;;15.65;9.05;;;;;;;;;;4983338;28;20050;-80
2022/10/26 00:28:24;;;;;;;15.07;9.07;;;;;;;;;;4983923;28;20378;-81
2022/10/26 00:30:50;;;;;;;11.75;8.75;;;;;;;;;;4968608;28;20039;-80
2022/10/26 00:33:15;;;;;;;12.32;8.38;;;;;;;;;;4987018;28;20393;-81
2022/10/26 00:35:41;;;;;;;13.73;8.43;;;;;;;;;;4987208;28;20030;-80
2022/10/26 00:38:06;;;;;;;12.57;8.70;;;;;;;;;;4987246;28;20117;-81
2022/10/26 00:40:32;;;;;;;11.10;8.00;;;;;;;;;;4987240;28;20038;-80
2022/10/26 00:42:57;;;;;;;15.55;8.48;;;;;;;;;;4971184;28;20127;-81
2022/10/26 00:45:27;;;;;;;10.38;7.22;;;;;;;;;;4986816;28;20144;-81
2022/10/26 00:47:57;;;;;;;11.40;7.90;;;;;;;;;;4970196;28;20950;-80
2022/10/26 00:50:31;;;;;;;12.68;7.70;;;;;;;;;;4970480;28;20031;-81
2022/10/26 00:52:57;;;;;;;11.80;7.22;;;;;;;;;;4970943;28;20085;-80
2022/10/26 00:55:23;;;;;;;11.95;7.57;;;;;;;;;;4970438;28;20498;-80
2022/10/26 00:57:49;;;;;;;11.82;7.03;;;;;;;;;;4954679;29;20027;-80
2022/10/26 01:00:14;;;;;;;12.75;7.15;;;;;;;;;;4986501;28;20039;-80
2022/10/26 01:02:40;;;;;;;10.10;6.72;;;;;;;;;;4954249;28;20027;-80
2022/10/26 01:05:06;;;;;;;13.88;7.30;;;;;;;;;;4986665;28;20046;-81
2022/10/26 01:07:32;;;;;;;9.88;6.75;;;;;;;;;;4970466;28;20042;-81
2022/10/26 01:09:57;;;;;;;13.98;7.03;;;;;;;;;;4967046;28;20040;-81
2022/10/26 01:12:22;;;;;;;10.52;7.18;;;;;;;;;;4951122;29;20035;-81
2022/10/26 01:14:48;;;;;;;11.95;7.20;;;;;;;;;;4934860;29;20371;-81
2022/10/26 01:17:35;;;;;;;10.75;7.38;;;;;;;;;;4966941;28;20032;-81
2022/10/26 01:20:19;;;;;;;8.63;5.93;;;;;;;;;;4951043;29;20023;-81
2022/10/26 01:22:53;;;;;;;10.10;5.88;;;;;;;;;;4951585;29;20047;-80
2022/10/26 01:25:42;;;;;;;9.63;6.55;;;;;;;;;;4950544;29;20070;-81
2022/10/26 01:28:19;;;;;;;8.95;5.72;;;;;;;;;;4965173;28;20043;-80
2022/10/26 01:30:44;;;;;;;9.35;5.80;;;;;;;;;;4949945;29;20028;-81
2022/10/26 01:33:24;;;;;;;9.70;5.55;;;;;;;;;;4934926;29;20046;-81
2022/10/26 01:35:53;;;;;;;9.93;6.07;;;;;;;;;;4950474;28;20031;-81
2022/10/26 01:38:24;;;;;;;8.38;5.60;;;;;;;;;;4966823;28;20495;-81
2022/10/26 01:41:24;;;;;;;9.63;5.70;;;;;;;;;;4950363;29;20040;-80
2022/10/26 01:43:54;;;;;;;10.52;5.43;;;;;;;;;;4950868;29;20046;-80
2022/10/26 01:46:21;;;;;;;8.65;5.45;;;;;;;;;;4949595;28;20386;-81
2022/10/26 01:48:46;;;;;;;8.32;4.95;;;;;;;;;;4966848;28;20042;-80
2022/10/26 01:51:11;;;;;;;8.90;5.50;;;;;;;;;;4966329;28;20490;-81
2022/10/26 01:53:42;;;;;;;8.23;5.10;;;;;;;;;;4966480;28;20726;-81
2022/10/26 01:56:12;;;;;;;7.18;5.25;;;;;;;;;;4966149;28;20048;-80
2022/10/26 01:58:52;;;;;;;7.88;4.60;;;;;;;;;;4965903;28;20508;-81
2022/10/26 02:01:36;;;;;;;8.18;4.35;;;;;;;;;;4984326;28;20110;-81
2022/10/26 02:04:20;;;;;;;7.90;5.00;;;;;;;;;;4986045;28;20035;-80
2022/10/26 02:07:04;;;;;;;6.32;4.15;;;;;;;;;;4985595;28;20039;-80
2022/10/26 02:10:09;;;;;;;8.30;4.80;;;;;;;;;;4952110;28;20033;-81
2022/10/26 02:13:04;;;;;;;7.80;4.60;;;;;;;;;;4969293;28;20078;-81
2022/10/26 02:15:33;;;;;;;7.45;4.63;;;;;;;;;;4966091;28;20055;-81
2022/10/26 02:18:17;;;;;;;7.70;5.30;;;;;;;;;;4953246;28;20039;-81
2022/10/26 02:20:46;;;;;;;6.60;4.03;;;;;;;;;;4969091;28;20039;-81
2022/10/26 02:23:11;;;;;;;6.03;3.97;;;;;;;;;;4969311;28;20440;-81
2022/10/26 02:25:41;;;;;;;7.57;4.32;;;;;;;;;;4968537;28;20038;-80
2022/10/26 02:28:09;;;;;;;5.72;3.78;;;;;;;;;;4968826;28;20027;-81
2022/10/26 02:30:34;;;;;;;6.85;3.70;;;;;;;;;;4969295;28;20031;-80
2022/10/26 02:33:00;;;;;;;6.38;4.43;;;;;;;;;;4968710;28;20039;-80
2022/10/26 02:35:30;;;;;;;7.95;3.70;;;;;;;;;;4968834;28;20042;-81
2022/10/26 02:37:57;;;;;;;7.35;4.70;;;;;;;;;;4965472;28;20070;-81
2022/10/26 02:40:26;;;;;;;6.00;3.38;;;;;;;;;;4983851;28;20070;-80
2022/10/26 02:42:53;;;;;;;6.90;3.85;;;;;;;;;;4968661;28;20050;-80
2022/10/26 02:45:23;;;;;;;5.47;3.08;;;;;;;;;;4984939;28;20043;-81
2022/10/26 02:47:49;;;;;;;8.48;3.58;;;;;;;;;;4952447;29;20031;-81
2022/10/26 02:50:15;;;;;;;7.18;4.07;;;;;;;;;;4969025;28;20042;-81
2022/10/26 02:52:51;;;;;;;4.00;2.95;;;;;;;;;;4984022;28;20034;-80
2022/10/26 02:55:26;;;;;;;6.63;3.58;;;;;;;;;;4951658;29;20039;-81
2022/10/26 02:57:58;;;;;;;6.60;3.63;;;;;;;;;;4968497;28;20110;-81
2022/10/26 03:00:23;;;;;;;5.43;3.70;;;;;;;;;;4952486;29;20486;-81
2022/10/26 03:02:56;;;;;;;5.55;3.03;;;;;;;;;;4968427;28;20170;-81
2022/10/26 03:05:29;;;;;;;5.18;3.53;;;;;;;;;;4968199;28;20035;-81
2022/10/26 03:07:55;;;;;;;7.88;3.88;;;;;;;;;;4952174;29;20510;-80
2022/10/26 03:10:21;;;;;;;7.05;3.30;;;;;;;;;;4948898;29;20032;-81
2022/10/26 03:12:46;;;;;;;5.18;2.72;;;;;;;;;;4949206;29;20068;-80
2022/10/26 03:15:12;;;;;;;6.78;3.65;;;;;;;;;;4932908;29;20102;-80
2022/10/26 03:17:37;;;;;;;5.85;2.90;;;;;;;;;;4965276;28;20059;-81
2022/10/26 03:20:03;;;;;;;6.50;3.35;;;;;;;;;;4965620;28;20039;-80
2022/10/26 03:22:29;;;;;;;4.82;3.08;;;;;;;;;;4933279;29;20024;-81
2022/10/26 03:24:54;;;;;;;4.30;2.72;;;;;;;;;;4948717;29;20073;-81
2022/10/26 03:27:20;;;;;;;4.45;2.45;;;;;;;;;;4948588;28;20442;-81
2022/10/26 03:29:45;;;;;;;5.57;3.20;;;;;;;;;;4949062;29;20036;-81
2022/10/26 03:32:11;;;;;;;5.78;3.38;;;;;;;;;;4948951;29;20032;-81
2022/10/26 03:34:36;;;;;;;5.20;2.85;;;;;;;;;;4964569;28;20062;-80
2022/10/26 03:37:02;;;;;;;4.90;2.72;;;;;;;;;;4965046;28;20390;-80
2022/10/26 03:39:27;;;;;;;4.90;3.25;;;;;;;;;;4964785;28;20123;-81
2022/10/26 03:41:54;;;;;;;4.38;2.30;;;;;;;;;;4964769;28;20044;-81
2022/10/26 03:44:19;;;;;;;4.55;2.33;;;;;;;;;;4964432;28;20040;-81
2022/10/26 03:46:45;;;;;;;4.68;2.50;;;;;;;;;;4965232;28;20066;-81
2022/10/26 03:49:10;;;;;;;7.00;2.70;;;;;;;;;;4964569;28;20036;-81
2022/10/26 03:51:35;;;;;;;5.22;2.55;;;;;;;;;;4964997;28;20043;-81
2022/10/26 03:54:01;;;;;;;5.07;2.80;;;;;;;;;;4964697;28;20398;-81
2022/10/26 03:56:26;;;;;;;4.15;2.03;;;;;;;;;;4963261;28;20106;-80
2022/10/26 03:58:52;;;;;;;6.03;3.63;;;;;;;;;;4963992;28;20040;-81
2022/10/26 04:01:17;;;;;;;3.60;2.13;;;;;;;;;;4982961;28;20397;-80
2022/10/26 04:03:43;;;;;;;4.43;2.30;;;;;;;;;;4967577;28;20039;-81
2022/10/26 04:06:08;;;;;;;4.70;2.05;;;;;;;;;;4970847;28;20394;-80
2022/10/26 04:08:33;;;;;;;4.60;2.35;;;;;;;;;;4987696;28;20032;-81
2022/10/26 04:10:59;;;;;;;4.72;2.38;;;;;;;;;;4971072;28;20074;-80
2022/10/26 04:13:24;;;;;;;3.60;2.22;;;;;;;;;;4987875;28;20430;-81
2022/10/26 04:15:50;;;;;;;3.63;1.85;;;;;;;;;;4971453;28;20114;-81
2022/10/26 04:18:15;;;;;;;3.97;2.20;;;;;;;;;;4987640;28;20394;-80
2022/10/26 04:20:41;;;;;;;3.65;2.05;;;;;;;;;;4955323;29;20034;-81
2022/10/26 04:23:09;;;;;;;4.10;1.98;;;;;;;;;;4970389;28;20062;-81
2022/10/26 04:25:34;;;;;;;5.00;2.38;;;;;;;;;;4986800;28;20424;-82
2022/10/26 04:28:00;;;;;;;3.53;2.35;;;;;;;;;;4971267;28;20043;-81
2022/10/26 04:30:25;;;;;;;4.60;2.13;;;;;;;;;;4955261;29;20122;-81
2022/10/26 04:32:52;;;;;;;3.83;2.25;;;;;;;;;;4970987;28;20064;-81
2022/10/26 04:35:17;;;;;;;5.57;1.90;;;;;;;;;;4955042;28;20078;-82
2022/10/26 04:37:43;;;;;;;4.55;1.90;;;;;;;;;;4955228;28;20035;-81
2022/10/26 04:40:09;;;;;;;4.05;1.70;;;;;;;;;;4970432;28;20383;-82
2022/10/26 04:42:44;;;;;;;3.47;1.90;;;;;;;;;;4971184;28;20035;-82
2022/10/26 04:45:10;;;;;;;2.65;1.42;;;;;;;;;;4953703;28;20043;-81
2022/10/26 04:47:36;;;;;;;5.32;2.20;;;;;;;;;;4954884;29;20036;-82
2022/10/26 04:50:02;;;;;;;4.20;1.95;;;;;;;;;;4970940;28;20047;-82
2022/10/26 04:52:30;;;;;;;3.03;1.73;;;;;;;;;;4970997;28;20039;-82
2022/10/26 04:54:55;;;;;;;3.55;1.50;;;;;;;;;;4970296;28;20035;-82
2022/10/26 04:57:21;;;;;;;2.58;1.38;;;;;;;;;;4970333;28;20059;-83
2022/10/26 04:59:46;;;;;;;4.65;1.55;;;;;;;;;;4986941;28;20074;-83
2022/10/26 05:02:11;;;;;;;4.68;1.38;;;;;;;;;;4986705;28;20402;-82
2022/10/26 05:04:37;;;;;;;3.20;1.60;;;;;;;;;;4970853;28;20429;-83
2022/10/26 05:07:02;;;;;;;3.35;1.55;;;;;;;;;;4970225;28;20401;-84
2022/10/26 05:09:28;;;;;;;2.53;1.30;;;;;;;;;;4970750;28;20390;-86
2022/10/26 05:11:53;;;;;;;3.50;1.55;;;;;;;;;;4970367;28;20094;-86
2022/10/26 05:14:19;;;;;;;3.72;1.50;;;;;;;;;;4970332;28;20195;-87
2022/10/26 05:16:45;;;;;;;2.70;1.38;;;;;;;;;;4969879;28;20035;-85
2022/10/26 05:19:10;;;;;;;3.22;1.70;;;;;;;;;;4969346;28;20041;-84
2022/10/26 05:21:36;;;;;;;3.63;2.47;;;;;;;;;;4969089;28;20126;-84
2022/10/26 05:24:01;;;;;;;3.13;1.35;;;;;;;;;;4969299;28;20042;-83
2022/10/26 05:26:27;;;;;;;3.47;1.20;;;;;;;;;;4969496;28;20035;-84
2022/10/26 05:28:53;;;;;;;3.25;1.55;;;;;;;;;;4970033;28;20549;-84
2022/10/26 05:31:19;;;;;;;3.25;1.38;;;;;;;;;;4970028;28;20039;-84
2022/10/26 05:33:48;;;;;;;3.97;1.17;;;;;;;;;;4970233;28;20110;-85
2022/10/26 05:36:13;;;;;;;2.95;1.52;;;;;;;;;;4969493;28;20060;-84
2022/10/26 05:38:39;;;;;;;2.88;1.40;;;;;;;;;;4969626;28;20536;-84
2022/10/26 05:41:04;;;;;;;2.95;1.20;;;;;;;;;;4953884;29;20118;-84
2022/10/26 05:43:31;;;;;;;3.65;1.17;;;;;;;;;;4969865;28;20070;-84
2022/10/26 05:46:00;;;;;;;2.25;1.05;;;;;;;;;;4953632;29;20027;-84
2022/10/26 05:48:26;;;;;;;3.00;1.63;;;;;;;;;;4969851;28;20043;-84
2022/10/26 05:50:51;;;;;;;3.40;1.38;;;;;;;;;;4969623;28;20031;-84
2022/10/26 05:53:16;;;;;;;2.15;1.13;;;;;;;;;;4969338;28;20375;-84
2022/10/26 05:55:42;;;;;;;2.83;1.38;;;;;;;;;;4969350;28;20382;-84
2022/10/26 05:58:12;;;;;;;2.10;0.90;;;;;;;;;;4969472;28;20023;-83
2022/10/26 06:00:44;;;;;;;2.38;1.00;;;;;;;;;;4986006;28;20034;-83
2022/10/26 06:03:19;;;;;;;2.97;1.23;;;;;;;;;;4953519;28;20043;-83
2022/10/26 06:05:54;;;;;;;2.05;1.30;;;;;;;;;;4985672;28;20130;-82
2022/10/26 06:08:20;;;;;;;3.63;1.27;;;;;;;;;;4984420;28;20063;-86
2022/10/26 06:10:46;;;;;;;2.97;1.15;;;;;;;;;;4969177;28;20497;-86
2022/10/26 06:13:12;;;;;;;2.95;0.90;;;;;;;;;;4949380;29;20398;-85
2022/10/26 06:15:50;;;;;;;3.95;1.65;;;;;;;;;;4985301;28;20027;-85
2022/10/26 06:18:23;;;;;;;2.83;1.10;;;;;;;;;;4952592;29;20498;-85
2022/10/26 06:21:01;;;;;;;3.75;1.20;;;;;;;;;;4948994;29;20035;-84
2022/10/26 06:23:36;;;;;;;2.92;1.00;;;;;;;;;;4969424;28;20031;-88
2022/10/26 06:26:09;;;;;;;4.05;1.52;;;;;;;;;;4969398;28;20482;-87
2022/10/26 06:29:13;;;;;;;2.55;1.35;;;;;;;;;;4971174;28;20047;-87
2022/10/26 06:31:39;;;;;;;4.68;1.83;;;;;;;;;;4969391;28;20079;-85
2022/10/26 06:34:08;;;;;;;8.52;2.10;;;;;;;;;;4966597;28;20028;-88
2022/10/26 06:36:34;;;;;;;5.32;1.95;;;;;;;;;;4983292;28;20062;-88
2022/10/26 06:39:06;;;;;;;4.47;1.65;;;;;;;;;;4966791;28;20091;-88
2022/10/26 06:41:33;;;;;;;4.60;1.73;;;;;;;;;;4966592;28;20112;-87
2022/10/26 06:44:01;;;;;;;4.35;1.63;;;;;;;;;;4984141;28;20031;-87
2022/10/26 06:46:53;;;;;;;5.35;1.55;;;;;;;;;;4967125;28;20039;-88
2022/10/26 06:49:29;;;;;;;5.20;1.63;;;;;;;;;;4944695;29;20443;-84
2022/10/26 06:52:08;;;;;;;4.40;1.27;;;;;;;;;;4965524;28;20553;-83
2022/10/26 06:54:50;;;;;;;3.15;1.65;;;;;;;;;;4965933;28;20032;-85
2022/10/26 06:57:17;;;;;;;2.63;1.38;;;;;;;;;;4985208;28;20034;-83
2022/10/26 06:59:48;;;;;;;4.97;0.93;;;;;;;;;;4969019;28;20039;-84
2022/10/26 07:02:14;;;;;;;3.58;1.30;;;;;;;;;;4969022;28;20035;-84
2022/10/26 07:04:41;;;;;;;4.25;1.30;;;;;;;;;;4968387;28;20039;-84
2022/10/26 07:07:11;;;;;;;3.33;1.20;;;;;;;;;;4952533;29;20031;-84
2022/10/26 07:09:37;;;;;;;3.90;1.65;;;;;;;;;;4968553;28;20027;-84
2022/10/26 07:12:02;;;;;;;5.97;1.88;;;;;;;;;;4968507;28;20049;-83
2022/10/26 07:14:28;;;;;;;4.63;1.25;;;;;;;;;;4968445;28;20382;-84
2022/10/26 07:16:55;;;;;;;3.67;1.02;;;;;;;;;;4968603;28;20046;-84
2022/10/26 07:19:21;;;;;;;5.35;1.20;;;;;;;;;;4968278;28;20039;-84
2022/10/26 07:21:48;;;;;;;3.60;1.17;;;;;;;;;;4968826;28;20023;-84
2022/10/26 07:24:13;;;;;;;2.97;1.10;;;;;;;;;;4968333;28;20042;-83
2022/10/26 07:26:40;;;;;;;3.90;1.58;;;;;;;;;;4968546;28;20065;-87
2022/10/26 07:29:05;;;;;;;3.28;1.10;;;;;;;;;;4968826;28;20043;-85
2022/10/26 07:31:32;;;;;;;5.18;1.63;;;;;;;;;;4968670;28;20090;-85
2022/10/26 07:33:59;;;;;;;3.85;1.20;;;;;;;;;;4983713;28;20035;-89
2022/10/26 07:36:28;;;;;;;3.95;1.23;;;;;;;;;;4985537;28;20086;-88
2022/10/26 07:38:54;;;;;;;5.45;1.20;;;;;;;;;;4969112;28;20098;-88
2022/10/26 07:41:21;;;;;;;5.65;1.30;;;;;;;;;;4973042;28;20490;-87
2022/10/26 07:43:49;;;;;;;4.30;1.90;;;;;;;;;;4989030;28;20078;-86
2022/10/26 07:46:15;;;;;;;6.50;1.58;;;;;;;;;;4959137;28;20027;-89
2022/10/26 07:48:41;;;;;;;4.07;1.02;;;;;;;;;;4973212;28;20074;-91
2022/10/26 07:51:08;;;;;;;5.55;1.52;;;;;;;;;;4958263;29;20459;-91
2022/10/26 07:53:34;;;;;;;7.00;1.55;;;;;;;;;;4976925;28;20482;-89
2022/10/26 07:56:09;;;;;;;3.03;1.00;;;;;;;;;;4965141;29;20046;-87
2022/10/26 07:58:35;;;;;;;6.32;1.80;;;;;;;;;;4979473;28;20027;-88
2022/10/26 08:01:09;;;;;;;6.28;1.48;;;;;;;;;;4957005;29;20024;-92
2022/10/26 08:03:36;;;;;;;5.75;1.50;;;;;;;;;;4959366;28;20062;-89
2022/10/26 08:06:04;;;;;;;5.47;1.83;;;;;;;;;;4961781;29;20113;-90
2022/10/26 08:08:30;;;;;;;5.80;1.58;;;;;;;;;;4974494;28;20035;-89
2022/10/26 08:10:57;;;;;;;4.43;1.60;;;;;;;;;;4972007;28;20474;-89
2022/10/26 08:13:22;;;;;;;5.03;1.38;;;;;;;;;;4982594;28;20497;-87
2022/10/26 08:15:58;;;;;;;6.45;1.60;;;;;;;;;;4971609;28;20043;-89
2022/10/26 08:18:24;;;;;;;5.38;1.88;;;;;;;;;;4972362;28;20498;-87
2022/10/26 08:20:53;;;;;;;4.25;1.38;;;;;;;;;;4955995;29;20035;-87
2022/10/26 08:23:20;;;;;;;6.00;1.17;;;;;;;;;;4969003;28;20068;-88
2022/10/26 08:25:46;;;;;;;3.15;1.10;;;;;;;;;;4958815;28;20037;-88
2022/10/26 08:28:15;;;;;;;2.45;1.17;;;;;;;;;;4971679;28;20034;-87
2022/10/26 08:30:41;;;;;;;6.85;1.70;;;;;;;;;;4971634;28;20042;-88
2022/10/26 08:33:07;;;;;;;7.03;1.58;;;;;;;;;;4971530;28;20028;-88
2022/10/26 08:35:32;;;;;;;3.22;1.20;;;;;;;;;;4970654;28;20081;-88
2022/10/26 08:37:59;;;;;;;5.05;1.52;;;;;;;;;;4956186;29;20445;-87
2022/10/26 08:40:30;;;;;;;6.22;1.35;;;;;;;;;;4971891;28;20039;-88
2022/10/26 08:43:03;;;;;;;8.77;1.55;;;;;;;;;;4972055;28;20031;-87
2022/10/26 08:45:40;;;;;;;3.63;0.90;;;;;;;;;;4971864;28;20390;-88
2022/10/26 08:48:11;;;;;;;3.97;1.33;;;;;;;;;;4959705;28;20032;-88
2022/10/26 08:50:59;;;;;;;3.30;1.20;;;;;;;;;;4971216;28;20064;-87
2022/10/26 08:53:37;;;;;;;3.65;1.02;;;;;;;;;;4971417;28;20169;-88
2022/10/26 08:56:10;;;;;;;6.35;1.42;;;;;;;;;;4969119;28;20036;-86
2022/10/26 08:58:39;;;;;;;5.07;1.17;;;;;;;;;;4954852;29;20061;-87
2022/10/26 09:01:07;;;;;;;4.60;1.33;;;;;;;;;;4969511;28;20045;-87
2022/10/26 09:03:32;;;;;;;4.43;1.48;;;;;;;;;;4970858;28;20035;-87
2022/10/26 09:06:08;;;;;;;2.88;1.15;;;;;;;;;;4953195;29;20036;-87
2022/10/26 09:08:38;;;;;;;4.45;1.13;;;;;;;;;;4970707;28;20031;-86
2022/10/26 09:11:10;;;;;;;7.35;1.35;;;;;;;;;;4967685;28;20042;-88
2022/10/26 09:13:42;;;;;;;4.30;1.50;;;;;;;;;;4954459;28;20038;-87
2022/10/26 09:16:16;;;;;;;;;;;;;;;;;;4954683;28;20034;-88
2022/10/26 09:19:00;;;;;;;5.95;1.33;;;;;;;;;;4970885;28;20094;-88
2022/10/26 09:21:44;;;;;;;6.00;1.50;;;;;;;;;;4970102;28;20027;-88
2022/10/26 09:24:14;;;;;;;3.00;1.15;;;;;;;;;;4970693;28;20027;-88
2022/10/26 09:27:11;;;;;;;7.93;1.77;;;;;;;;;;4954387;28;20410;-89
2022/10/26 09:29:41;;;;;;;4.68;1.40;;;;;;;;;;4981757;28;20027;-87
2022/10/26 09:32:29;;;;;;;10.15;1.08;;;;;;;;;;4970869;28;20144;-87
2022/10/26 09:34:58;;;;;;;5.32;0.90;;;;;;;;;;4979479;28;20039;-85
2022/10/26 09:37:28;;;;;;;3.30;1.02;;;;;;;;;;4966525;28;20034;-86
2022/10/26 09:40:10;;;;;;;4.75;1.60;;;;;;;;;;4953898;28;20035;-86
2022/10/26 09:42:43;;;;;;;2.30;1.52;;;;;;;;;;4961615;28;20035;-87
2022/10/26 09:45:19;;;;;;;3.08;1.58;;;;;;;;;;4954212;28;20050;-87
2022/10/26 09:47:49;;;;;;;4.28;1.10;;;;;;;;;;4971034;28;20031;-86
2022/10/26 09:50:19;;;;;;;3.83;1.02;;;;;;;;;;4951493;29;20023;-88
2022/10/26 09:52:45;;;;;;;3.67;1.40;;;;;;;;;;4968220;28;20517;-82
2022/10/26 09:55:11;;;;;;;4.28;1.20;;;;;;;;;;4969314;28;20019;-88
2022/10/26 09:57:41;;;;;;;2.15;0.95;;;;;;;;;;4953894;28;20438;-87
2022/10/26 10:00:14;;;;;;;2.67;1.23;;;;;;;;;;4970149;28;20094;-87
2022/10/26 10:02:44;;;;;;;8.27;1.38;;;;;;;;;;4969714;28;20552;-87
2022/10/26 10:05:22;;;;;;;2.70;0.88;;;;;;;;;;4952340;28;20058;-82
2022/10/26 10:07:48;;;;;;;10.10;1.42;;;;;;;;;;4967814;28;20375;-84
2022/10/26 10:10:15;;;;;;;4.30;1.05;;;;;;;;;;4967886;28;20031;-83
2022/10/26 10:12:46;;;;;;;3.75;1.10;;;;;;;;;;4963646;28;20090;-86
2022/10/26 10:15:23;;;;;;;3.13;1.00;;;;;;;;;;4967941;28;20118;-83
2022/10/26 10:17:55;;;;;;;2.67;1.08;;;;;;;;;;4967532;28;20035;-85
2022/10/26 10:20:21;;;;;;;;;;;;;;;;;;4969372;28;20023;-82
2022/10/26 10:22:59;;;;;;;2.95;0.77;;;;;;;;;;4967539;28;20023;-86
2022/10/26 10:25:34;;;;;;;4.43;1.00;;;;;;;;;;4966538;28;20035;-83
2022/10/26 10:28:24;;;;;;;4.22;0.88;;;;;;;;;;4964452;28;20031;-85
2022/10/26 10:30:59;;;;;;;4.18;1.02;;;;;;;;;;4955402;28;20043;-82
2022/10/26 10:33:44;;;;;;;2.85;1.38;;;;;;;;;;4967262;28;20031;-86
2022/10/26 10:36:14;;;;;;;3.30;1.33;;;;;;;;;;4967083;28;20079;-83
2022/10/26 10:38:40;;;;;;;2.63;1.00;;;;;;;;;;4967023;28;20057;-83
2022/10/26 10:41:14;;;;;;;7.10;2.00;;;;;;;;;;4968251;28;20043;-82
2022/10/26 10:44:08;;;;;;;1.73;0.75;;;;;;;;;;4966761;28;20059;-84
2022/10/26 10:46:36;;;;;;;1.90;0.68;;;;;;;;;;4949810;29;20387;-83
2022/10/26 10:49:15;;;;;;;1.83;0.80;;;;;;;;;;4968205;28;20027;-83
2022/10/26 10:51:42;;;;;;;1.52;0.90;;;;;;;;;;4965678;28;20060;-84
2022/10/26 10:54:34;;;;;;;2.72;1.00;;;;;;;;;;4952011;28;20015;-82
2022/10/26 10:57:24;;;;;;;1.85;0.75;;;;;;;;;;4965837;28;20023;-83
2022/10/26 11:00:04;;;;;;;3.95;0.98;;;;;;;;;;4984129;28;20791;-83
2022/10/26 11:02:45;;;;;;;1.80;0.65;;;;;;;;;;4952699;28;20121;-84
2022/10/26 11:05:21;;;;;;;2.27;0.50;;;;;;;;;;4968711;28;20481;-85
2022/10/26 11:08:09;;;;;;;1.65;0.63;;;;;;;;;;4968660;28;20031;-85
2022/10/26 11:10:39;;;;;;;2.85;0.90;;;;;;;;;;4968105;28;20070;-85
2022/10/26 11:13:35;;;;;;;3.83;0.95;;;;;;;;;;4968947;28;20113;-85
2022/10/26 11:16:03;;;;;;;1.83;0.70;;;;;;;;;;4968089;28;20129;-85
2022/10/26 11:18:53;;;;;;;2.85;0.90;;;;;;;;;;4968316;28;20098;-84
2022/10/26 11:21:22;;;;;;;5.63;1.08;;;;;;;;;;4968425;28;20042;-84
2022/10/26 11:23:50;;;;;;;2.35;1.00;;;;;;;;;;4953169;29;20403;-83
2022/10/26 11:26:30;;;;;;;6.97;1.20;;;;;;;;;;4951689;29;20114;-84
2022/10/26 11:29:01;;;;;;;5.60;1.63;;;;;;;;;;4982682;28;20057;-84
2022/10/26 11:31:30;;;;;;;3.22;0.85;;;;;;;;;;4984440;28;20042;-84
2022/10/26 11:34:09;;;;;;;6.45;1.15;;;;;;;;;;4968022;28;20047;-84
2022/10/26 11:36:35;;;;;;;5.10;1.25;;;;;;;;;;4968212;28;20035;-84
2022/10/26 11:39:19;;;;;;;4.47;1.20;;;;;;;;;;4983672;28;20043;-84
2022/10/26 11:42:03;;;;;;;2.65;0.88;;;;;;;;;;4984269;28;20039;-83
2022/10/26 11:44:33;;;;;;;3.00;0.93;;;;;;;;;;4984130;28;20118;-84
2022/10/26 11:47:15;;;;;;;3.53;0.95;;;;;;;;;;4972740;28;20085;-84
2022/10/26 11:50:09;;;;;;;1.85;0.60;;;;;;;;;;4968631;28;20023;-85
2022/10/26 11:52:44;;;;;;;2.05;0.50;;;;;;;;;;4951804;29;20046;-85
2022/10/26 11:55:09;;;;;;;4.07;0.85;;;;;;;;;;4967121;28;20054;-84
2022/10/26 11:57:38;;;;;;;1.73;0.65;;;;;;;;;;4951970;28;20070;-85
2022/10/26 12:00:07;;;;;;;3.33;0.63;;;;;;;;;;4951688;29;20382;-85
2022/10/26 12:02:42;;;;;;;1.58;0.70;;;;;;;;;;4952108;29;20504;-84
2022/10/26 12:05:14;;;;;;;2.97;0.60;;;;;;;;;;4951996;29;20027;-85
2022/10/26 12:07:39;;;;;;;2.92;0.77;;;;;;;;;;4967282;28;20051;-82
2022/10/26 12:10:07;;;;;;;3.60;0.82;;;;;;;;;;4948692;29;20386;-83
2022/10/26 12:12:36;;;;;;;2.95;0.65;;;;;;;;;;4948978;29;20036;-85
2022/10/26 12:15:26;;;;;;;1.63;0.52;;;;;;;;;;4948798;29;20032;-86
2022/10/26 12:18:12;;;;;;;1.92;0.80;;;;;;;;;;4963017;28;20090;-83
2022/10/26 12:21:03;;;;;;;1.45;0.57;;;;;;;;;;4977316;28;20034;-85
2022/10/26 12:23:55;;;;;;;2.50;0.43;;;;;;;;;;4953971;29;20036;-86
2022/10/26 12:26:23;;;;;;;3.75;0.70;;;;;;;;;;4971466;28;20046;-84
2022/10/26 12:29:12;;;;;;;2.75;0.70;;;;;;;;;;4973207;28;20571;-84
2022/10/26 12:31:38;;;;;;;3.08;0.75;;;;;;;;;;4943653;29;20035;-85
2022/10/26 12:34:22;;;;;;;3.22;0.60;;;;;;;;;;4973479;28;20046;-85
2022/10/26 12:36:53;;;;;;;2.33;0.63;;;;;;;;;;4972994;28;20024;-84
2022/10/26 12:39:30;;;;;;;2.40;0.57;;;;;;;;;;4973518;28;20490;-84
2022/10/26 12:42:08;;;;;;;3.70;0.85;;;;;;;;;;4972846;28;20085;-85
2022/10/26 12:44:39;;;;;;;3.17;1.13;;;;;;;;;;4989424;28;20058;-87
2022/10/26 12:47:05;;;;;;;10.63;1.63;;;;;;;;;;4973173;28;20028;-85
2022/10/26 12:50:04;;;;;;;2.45;0.93;;;;;;;;;;4989621;28;20050;-83
2022/10/26 12:52:52;;;;;;;2.40;0.63;;;;;;;;;;4972697;28;20027;-83
2022/10/26 12:55:34;;;;;;;2.08;0.60;;;;;;;;;;4973199;28;20067;-83
2022/10/26 12:58:28;;;;;;;1.67;0.75;;;;;;;;;;4972812;28;20035;-82
2022/10/26 13:00:59;;;;;;;1.88;0.65;;;;;;;;;;4973063;28;20046;-85
2022/10/26 13:03:29;;;;;;;2.42;0.77;;;;;;;;;;4956587;29;20065;-83
2022/10/26 13:06:07;;;;;;;4.80;0.73;;;;;;;;;;4973026;28;20042;-83
2022/10/26 13:08:47;;;;;;;1.15;0.60;;;;;;;;;;4973170;28;20028;-85
2022/10/26 13:11:37;;;;;;;2.75;0.55;;;;;;;;;;4967523;28;20047;-84
2022/10/26 13:14:05;;;;;;;2.22;0.65;;;;;;;;;;4955436;28;20038;-84
2022/10/26 13:16:31;;;;;;;4.75;1.17;;;;;;;;;;4968815;28;20035;-83
2022/10/26 13:18:57;;;;;;;3.45;0.60;;;;;;;;;;4969203;28;20042;-83
2022/10/26 13:21:23;;;;;;;1.88;0.68;;;;;;;;;;4952793;29;20032;-83
2022/10/26 13:23:52;;;;;;;3.05;0.75;;;;;;;;;;4969377;28;20071;-84
2022/10/26 13:26:24;;;;;;;3.30;0.93;;;;;;;;;;4952973;29;20375;-83
2022/10/26 13:28:51;;;;;;;3.80;0.50;;;;;;;;;;4975190;28;20114;-84
2022/10/26 13:31:30;;;;;;;6.63;1.10;;;;;;;;;;4955710;28;20046;-83
2022/10/26 13:33:59;;;;;;;2.53;0.60;;;;;;;;;;4988314;28;20584;-84
2022/10/26 13:36:35;;;;;;;1.95;0.50;;;;;;;;;;4972253;28;20031;-84
2022/10/26 13:39:05;;;;;;;4.90;0.80;;;;;;;;;;4971219;28;20039;-83
2022/10/26 13:41:36;;;;;;;2.58;0.88;;;;;;;;;;4988378;28;20065;-83
2022/10/26 13:44:05;;;;;;;3.13;0.80;;;;;;;;;;4988264;28;20038;-82
2022/10/26 13:46:35;;;;;;;3.30;1.20;;;;;;;;;;4971794;28;20050;-83
2022/10/26 13:49:22;;;;;;;5.03;1.02;;;;;;;;;;4955749;28;20039;-83
2022/10/26 13:51:48;;;;;;;3.53;0.93;;;;;;;;;;4988545;28;20027;-82
2022/10/26 13:54:16;;;;;;;4.00;0.88;;;;;;;;;;4985218;28;20505;-83
2022/10/26 13:56:47;;;;;;;5.82;1.20;;;;;;;;;;4967636;28;20106;-83
2022/10/26 13:59:13;;;;;;;2.85;0.93;;;;;;;;;;4985085;28;20043;-83
2022/10/26 14:01:38;;;;;;;6.00;1.00;;;;;;;;;;4985207;28;20086;-83
2022/10/26 14:04:17;;;;;;;5.80;1.33;;;;;;;;;;4984666;28;20394;-83
2022/10/26 14:06:47;;;;;;;4.43;1.10;;;;;;;;;;4968880;28;20482;-83
2022/10/26 14:09:14;;;;;;;3.90;0.90;;;;;;;;;;4953307;29;20035;-83
2022/10/26 14:11:51;;;;;;;3.13;0.80;;;;;;;;;;4969325;28;20019;-83
2022/10/26 14:14:30;;;;;;;4.38;0.70;;;;;;;;;;4953317;29;20046;-83
2022/10/26 14:16:56;;;;;;;4.95;0.98;;;;;;;;;;4985505;28;20102;-83
2022/10/26 14:19:23;;;;;;;2.83;0.60;;;;;;;;;;4952445;29;20035;-82
2022/10/26 14:21:49;;;;;;;3.60;1.05;;;;;;;;;;4969088;28;20150;-83
2022/10/26 14:24:49;;;;;;;2.58;0.60;;;;;;;;;;4985107;28;20035;-83
2022/10/26 14:27:19;;;;;;;1.85;0.60;;;;;;;;;;4953106;28;20155;-83
2022/10/26 14:29:44;;;;;;;2.28;0.60;;;;;;;;;;4968971;28;20047;-83
2022/10/26 14:32:30;;;;;;;2.53;0.80;;;;;;;;;;4953201;29;20033;-83
2022/10/26 14:34:56;;;;;;;2.33;0.82;;;;;;;;;;4952201;29;20032;-83
2022/10/26 14:37:31;;;;;;;2.17;0.80;;;;;;;;;;4968938;28;20102;-83
2022/10/26 14:39:57;;;;;;;3.55;0.73;;;;;;;;;;4985463;28;20057;-83
2022/10/26 14:42:37;;;;;;;5.80;0.73;;;;;;;;;;4969394;28;20035;-83
2022/10/26 14:45:03;;;;;;;2.35;0.88;;;;;;;;;;4968345;28;20050;-82
2022/10/26 14:47:29;;;;;;;6.68;0.93;;;;;;;;;;4968312;28;20035;-82
2022/10/26 14:49:55;;;;;;;5.43;1.00;;;;;;;;;;4951824;28;20367;-82
2022/10/26 14:52:31;;;;;;;5.90;1.30;;;;;;;;;;4969193;28;20055;-81
2022/10/26 14:55:13;;;;;;;5.15;0.80;;;;;;;;;;4969242;28;20494;-82
2022/10/26 14:57:40;;;;;;;3.88;0.88;;;;;;;;;;4968739;28;20046;-82
2022/10/26 15:00:12;;;;;;;4.78;1.25;;;;;;;;;;4984461;28;20035;-82
2022/10/26 15:02:37;;;;;;;9.68;1.33;;;;;;;;;;4953550;29;20046;-82
2022/10/26 15:05:23;;;;;;;5.93;1.35;;;;;;;;;;4984373;28;20035;-82
2022/10/26 15:07:51;;;;;;;2.60;0.65;;;;;;;;;;4952146;29;20046;-82